createdAt,value
2023-01-29T00:02:22.046Z,-1.71
2023-01-29T00:04:49.192Z,-1.72
2023-01-29T00:07:16.426Z,-1.72
2023-01-29T00:09:44.100Z,-1.72
2023-01-29T00:12:11.491Z,-1.71
2023-01-29T00:14:38.275Z,-1.74
2023-01-29T00:17:05.288Z,-1.75
2023-01-29T00:19:32.565Z,-1.76
2023-01-29T00:21:59.324Z,-1.77
2023-01-29T00:24:26.359Z,-1.79
2023-01-29T00:26:53.235Z,-1.82
2023-01-29T00:29:21.468Z,-1.87
2023-01-29T00:31:48.848Z,-1.92
2023-01-29T00:34:16.130Z,-1.95
2023-01-29T00:36:45.168Z,-1.96
2023-01-29T00:39:12.593Z,-1.98
2023-01-29T00:42:00.448Z,-1.98
2023-01-29T00:44:46.275Z,-1.99
2023-01-29T00:47:34.586Z,-2.00
2023-01-29T00:50:02.295Z,-2.01
2023-01-29T00:52:29.456Z,-2.01
2023-01-29T00:54:58.303Z,-2.01
2023-01-29T00:57:26.446Z,-2.03
2023-01-29T00:59:53.779Z,-2.03
2023-01-29T01:02:39.359Z,-2.03
2023-01-29T01:05:07.205Z,-2.03
2023-01-29T01:07:34.360Z,-2.01
2023-01-29T01:10:19.654Z,-2.00
2023-01-29T01:12:53.356Z,-2.00
2023-01-29T01:15:20.355Z,-1.99
2023-01-29T01:17:48.460Z,-1.99
2023-01-29T01:20:15.921Z,-1.99
2023-01-29T01:22:43.187Z,-1.96
2023-01-29T01:25:10.160Z,-1.95
2023-01-29T01:27:40.548Z,-1.95
2023-01-29T01:30:10.376Z,-1.96
2023-01-29T01:32:38.080Z,-1.98
2023-01-29T01:35:09.371Z,-2.01
2023-01-29T01:37:37.134Z,-2.05
2023-01-29T01:40:15.071Z,-2.10
2023-01-29T01:42:42.200Z,-2.13
2023-01-29T01:45:38.274Z,-2.16
2023-01-29T01:48:20.049Z,-2.17
2023-01-29T01:50:56.149Z,-2.16
2023-01-29T01:53:58.311Z,-2.15
2023-01-29T01:56:28.317Z,-2.14
2023-01-29T01:58:56.446Z,-2.14
2023-01-29T02:01:27.619Z,-2.14
2023-01-29T02:04:20.202Z,-2.13
2023-01-29T02:07:06.080Z,-2.16
2023-01-29T02:09:48.870Z,-2.18
2023-01-29T02:12:15.819Z,-2.19
2023-01-29T02:14:42.989Z,-2.19
2023-01-29T02:17:11.997Z,-2.19
2023-01-29T02:20:07.131Z,-2.19
2023-01-29T02:23:03.417Z,-2.20
2023-01-29T02:25:59.032Z,-2.21
2023-01-29T02:28:32.054Z,-2.23
2023-01-29T02:31:09.407Z,-2.21
2023-01-29T02:33:59.876Z,-2.20
2023-01-29T02:36:46.396Z,-2.17
2023-01-29T02:39:32.637Z,-2.13
2023-01-29T02:42:11.842Z,-2.09
2023-01-29T02:44:43.474Z,-2.06
2023-01-29T02:47:34.602Z,-2.04
2023-01-29T02:50:20.648Z,-2.02
2023-01-29T02:53:07.214Z,-1.97
2023-01-29T02:55:42.454Z,-1.94
2023-01-29T02:58:51.091Z,-1.91
2023-01-29T03:01:33.481Z,-1.86
2023-01-29T03:04:12.195Z,-1.84
2023-01-29T03:06:44.663Z,-1.83
2023-01-29T03:09:18.146Z,-1.83
2023-01-29T03:11:49.308Z,-1.80
2023-01-29T03:14:52.224Z,-1.80
2023-01-29T03:17:22.132Z,-1.79
2023-01-29T03:19:48.924Z,-1.77
2023-01-29T03:22:22.809Z,-1.74
2023-01-29T03:25:15.676Z,-1.70
2023-01-29T03:28:12.249Z,-1.67
2023-01-29T03:31:06.027Z,-1.64
2023-01-29T03:33:51.974Z,-1.65
2023-01-29T03:36:45.127Z,-1.65
2023-01-29T03:39:13.189Z,-1.64
2023-01-29T03:41:49.880Z,-1.62
2023-01-29T03:44:51.285Z,-1.63
2023-01-29T03:47:39.933Z,-1.66
2023-01-29T04:02:09.922Z,-1.72
2023-01-29T04:04:38.689Z,-1.33
2023-01-29T04:07:14.977Z,-1.31
2023-01-29T04:10:00.363Z,-1.32
2023-01-29T04:12:47.025Z,-1.33
2023-01-29T04:15:17.441Z,-1.30
2023-01-29T04:17:52.702Z,-1.26
2023-01-29T04:20:36.238Z,-1.22
2023-01-29T04:23:06.166Z,-1.20
2023-01-29T04:25:44.347Z,-1.14
2023-01-29T04:28:17.467Z,-1.09
2023-01-29T04:30:54.640Z,-1.05
2023-01-29T04:33:57.083Z,-1.02
2023-01-29T04:36:37.982Z,-1.02
2023-01-29T04:39:17.120Z,-1.00
2023-01-29T04:41:54.783Z,-0.96
2023-01-29T04:44:30.684Z,-0.93
2023-01-29T04:47:07.611Z,-0.92
2023-01-29T04:50:06.793Z,-0.90
2023-01-29T04:53:14.440Z,-0.85
2023-01-29T04:55:52.245Z,-0.82
2023-01-29T04:58:42.024Z,-0.80
2023-01-29T05:01:11.749Z,-0.79
2023-01-29T05:03:38.826Z,-0.78
2023-01-29T05:06:06.526Z,-0.77
2023-01-29T05:08:33.760Z,-0.78
2023-01-29T05:11:00.748Z,-0.78
2023-01-29T05:13:29.097Z,-0.75
2023-01-29T05:16:00.077Z,-0.72
2023-01-29T05:18:26.879Z,-0.71
2023-01-29T05:20:53.850Z,-0.71
2023-01-29T05:23:21.494Z,-0.69
2023-01-29T05:25:48.881Z,-0.66
2023-01-29T05:28:16.899Z,-0.64
2023-01-29T05:30:44.428Z,-0.61
2023-01-29T05:33:16.594Z,-0.59
2023-01-29T05:35:46.154Z,-0.54
2023-01-29T05:38:13.168Z,-0.48
2023-01-29T05:40:39.972Z,-0.44
2023-01-29T05:43:14.897Z,-0.40
2023-01-29T05:45:41.798Z,-0.34
2023-01-29T05:48:08.664Z,-0.30
2023-01-29T05:50:35.632Z,-0.25
2023-01-29T05:53:02.599Z,-0.19
2023-01-29T05:55:29.541Z,-0.12
2023-01-29T05:57:59.411Z,-0.04
2023-01-29T06:00:26.283Z,0.00
2023-01-29T06:02:53.532Z,0.02
2023-01-29T06:05:20.492Z,0.05
2023-01-29T06:07:48.250Z,0.11
2023-01-29T06:10:21.300Z,0.13
2023-01-29T06:12:48.129Z,0.11
2023-01-29T06:15:15.570Z,0.10
2023-01-29T06:17:44.819Z,0.11
2023-01-29T06:20:12.793Z,0.14
2023-01-29T06:22:41.033Z,0.15
2023-01-29T06:25:09.758Z,0.16
2023-01-29T06:27:39.221Z,0.18
2023-01-29T06:30:09.750Z,0.19
2023-01-29T06:32:36.544Z,0.19
2023-01-29T06:35:09.536Z,0.18
2023-01-29T06:37:40.063Z,0.17
2023-01-29T06:40:11.551Z,0.14
2023-01-29T06:42:38.530Z,0.09
2023-01-29T06:45:06.613Z,-0.15
2023-01-29T06:47:33.617Z,-0.67
2023-01-29T06:50:00.721Z,-0.73
2023-01-29T06:52:28.619Z,-0.70
2023-01-29T06:54:56.184Z,-0.58
2023-01-29T06:57:22.969Z,0.14
2023-01-29T06:59:49.671Z,0.40
2023-01-29T07:02:17.342Z,0.52
2023-01-29T07:04:44.523Z,0.62
2023-01-29T07:07:15.279Z,0.67
2023-01-29T07:09:42.966Z,0.75
2023-01-29T07:12:10.668Z,0.84
2023-01-29T07:14:37.986Z,0.94
2023-01-29T07:17:08.187Z,1.01
2023-01-29T07:19:35.157Z,1.09
2023-01-29T07:22:03.449Z,1.14
2023-01-29T07:24:34.521Z,1.16
2023-01-29T07:27:01.576Z,1.16
2023-01-29T07:29:28.425Z,1.22
2023-01-29T07:31:57.999Z,1.28
2023-01-29T07:34:25.240Z,1.31
2023-01-29T07:36:56.306Z,1.33
2023-01-29T07:39:23.117Z,1.37
2023-01-29T07:41:49.888Z,1.42
2023-01-29T07:44:17.017Z,1.50
2023-01-29T07:46:43.802Z,1.58
2023-01-29T07:49:12.070Z,1.63
2023-01-29T07:51:38.858Z,1.69
2023-01-29T07:54:05.549Z,1.76
2023-01-29T07:56:33.938Z,1.81
2023-01-29T07:59:01.136Z,1.83
2023-01-29T08:01:27.963Z,1.82
2023-01-29T08:03:55.256Z,1.87
2023-01-29T08:06:22.419Z,1.94
2023-01-29T08:08:49.237Z,2.00
2023-01-29T08:11:17.441Z,2.05
2023-01-29T08:13:46.230Z,2.11
2023-01-29T08:16:13.309Z,2.18
2023-01-29T08:18:43.682Z,2.23
2023-01-29T08:21:12.926Z,2.26
2023-01-29T08:23:39.989Z,2.29
2023-01-29T08:26:06.899Z,2.31
2023-01-29T08:28:34.670Z,2.31
2023-01-29T08:31:01.639Z,2.33
2023-01-29T08:33:38.310Z,2.36
2023-01-29T08:36:07.353Z,2.41
2023-01-29T08:38:35.303Z,2.46
2023-01-29T08:41:02.309Z,2.43
2023-01-29T08:43:30.720Z,2.41
2023-01-29T08:45:57.676Z,2.38
2023-01-29T08:48:24.784Z,2.37
2023-01-29T08:50:51.544Z,2.37
2023-01-29T08:53:24.861Z,2.36
2023-01-29T08:55:52.186Z,2.37
2023-01-29T08:58:19.024Z,2.34
2023-01-29T09:00:45.860Z,2.33
2023-01-29T09:03:13.150Z,2.34
2023-01-29T09:05:40.112Z,2.34
2023-01-29T09:08:07.778Z,2.32
2023-01-29T09:10:36.535Z,2.31
2023-01-29T09:13:03.667Z,2.26
2023-01-29T09:15:30.531Z,2.22
2023-01-29T09:18:03.424Z,2.19
2023-01-29T09:20:30.404Z,2.18
2023-01-29T09:22:58.704Z,2.19
2023-01-29T09:25:25.494Z,2.21
2023-01-29T09:27:53.691Z,2.24
2023-01-29T09:30:20.547Z,2.28
2023-01-29T09:32:53.481Z,2.33
2023-01-29T09:35:25.004Z,2.41
2023-01-29T09:37:52.100Z,2.46
2023-01-29T09:40:49.987Z,2.49
2023-01-29T09:43:19.223Z,2.56
2023-01-29T09:46:04.056Z,2.63
2023-01-29T09:48:33.162Z,2.66
2023-01-29T09:51:02.959Z,2.68
2023-01-29T09:53:40.335Z,2.68
2023-01-29T09:56:33.623Z,2.69
2023-01-29T09:59:01.747Z,2.75
2023-01-29T10:01:33.390Z,2.76
2023-01-29T10:04:28.077Z,2.80
2023-01-29T10:07:02.184Z,2.81
2023-01-29T10:10:00.868Z,2.84
2023-01-29T10:12:28.468Z,2.92
2023-01-29T10:15:02.165Z,3.02
2023-01-29T10:17:50.536Z,3.14
2023-01-29T10:20:42.192Z,3.19
2023-01-29T10:23:29.864Z,3.21
2023-01-29T10:25:56.633Z,3.24
2023-01-29T10:28:45.790Z,3.27
2023-01-29T10:31:14.857Z,3.31
2023-01-29T10:34:02.367Z,3.29
2023-01-29T10:36:43.976Z,3.27
2023-01-29T10:39:18.831Z,3.24
2023-01-29T10:42:47.591Z,3.24
2023-01-29T10:45:48.697Z,3.24
2023-01-29T10:48:34.178Z,3.10
2023-01-29T10:51:32.586Z,3.01
2023-01-29T10:54:19.626Z,3.01
2023-01-29T10:57:11.670Z,3.04
2023-01-29T10:59:50.855Z,3.07
2023-01-29T11:02:20.874Z,3.09
2023-01-29T11:04:48.126Z,3.09
2023-01-29T11:07:17.098Z,3.07
2023-01-29T11:10:07.850Z,3.06
2023-01-29T11:12:38.155Z,3.06
2023-01-29T11:15:28.446Z,3.08
2023-01-29T11:18:05.823Z,3.10
2023-01-29T11:20:33.245Z,3.09
2023-01-29T11:23:00.126Z,3.12
2023-01-29T11:25:30.652Z,3.19
2023-01-29T11:28:08.923Z,3.26
2023-01-29T11:30:37.751Z,3.33
2023-01-29T11:33:25.724Z,3.40
2023-01-29T11:35:52.796Z,3.47
2023-01-29T11:38:27.156Z,3.50
2023-01-29T11:41:06.188Z,3.56
2023-01-29T11:43:36.516Z,3.61
2023-01-29T11:46:11.611Z,3.65
2023-01-29T11:48:47.498Z,3.69
2023-01-29T12:02:43.350Z,3.64
2023-01-29T12:05:19.205Z,3.91
2023-01-29T12:07:51.792Z,3.88
2023-01-29T12:10:36.656Z,3.84
2023-01-29T12:13:11.401Z,3.81
2023-01-29T12:15:42.961Z,3.76
2023-01-29T12:18:16.781Z,3.75
2023-01-29T12:20:52.397Z,3.76
2023-01-29T12:23:29.924Z,3.77
2023-01-29T12:26:24.515Z,3.78
2023-01-29T12:29:14.284Z,3.79
2023-01-29T12:32:03.985Z,3.82
2023-01-29T12:34:45.869Z,3.84
2023-01-29T12:37:18.092Z,3.85
2023-01-29T12:39:46.804Z,3.84
2023-01-29T12:42:20.731Z,3.81
2023-01-29T12:44:53.204Z,3.77
2023-01-29T12:47:38.468Z,3.79
2023-01-29T12:50:30.523Z,3.76
2023-01-29T12:52:59.548Z,3.75
2023-01-29T12:56:06.036Z,3.75
2023-01-29T12:58:37.089Z,3.79
2023-01-29T13:01:14.397Z,3.82
2023-01-29T13:04:01.190Z,3.83
2023-01-29T13:06:51.379Z,3.81
2023-01-29T13:09:22.619Z,3.76
2023-01-29T13:12:04.348Z,3.74
2023-01-29T13:14:48.275Z,3.74
2023-01-29T13:17:18.607Z,3.75
2023-01-29T13:19:49.337Z,3.74
2023-01-29T13:22:23.941Z,3.72
2023-01-29T13:25:03.693Z,3.72
2023-01-29T13:27:34.571Z,3.70
2023-01-29T13:30:03.435Z,3.73
2023-01-29T13:32:33.332Z,3.75
2023-01-29T13:35:04.107Z,3.73
2023-01-29T13:37:35.404Z,3.71
2023-01-29T13:40:05.597Z,3.69
2023-01-29T13:42:40.128Z,3.68
2023-01-29T13:45:08.899Z,3.67
2023-01-29T13:47:38.745Z,3.66
2023-01-29T13:50:21.286Z,3.67
2023-01-29T13:52:54.808Z,3.68
2023-01-29T13:55:41.953Z,3.68
2023-01-29T13:58:18.240Z,3.66
2023-01-29T14:00:50.300Z,3.65
2023-01-29T14:03:21.478Z,3.62
2023-01-29T14:05:54.255Z,3.60
2023-01-29T14:08:35.059Z,3.61
2023-01-29T14:11:16.012Z,3.62
2023-01-29T14:13:47.578Z,3.63
2023-01-29T14:16:16.925Z,3.64
2023-01-29T14:18:53.214Z,3.64
2023-01-29T14:21:32.079Z,3.62
2023-01-29T14:24:21.023Z,3.63
2023-01-29T14:26:49.726Z,3.65
2023-01-29T14:29:34.642Z,3.64
2023-01-29T14:32:12.116Z,3.63
2023-01-29T14:35:19.340Z,3.61
2023-01-29T14:37:53.265Z,3.61
2023-01-29T14:40:24.069Z,3.62
2023-01-29T14:43:02.670Z,3.61
2023-01-29T14:45:34.797Z,3.61
2023-01-29T14:48:12.342Z,3.59
2023-01-29T14:50:47.797Z,3.56
2023-01-29T14:53:26.188Z,3.52
2023-01-29T14:56:10.265Z,3.52
2023-01-29T14:59:09.019Z,3.49
2023-01-29T15:01:40.336Z,3.48
2023-01-29T15:04:18.182Z,3.51
2023-01-29T15:07:02.834Z,3.51
2023-01-29T15:09:50.170Z,3.50
2023-01-29T15:12:37.653Z,3.50
2023-01-29T15:15:15.316Z,3.47
2023-01-29T15:17:55.859Z,3.41
2023-01-29T15:20:34.025Z,3.37
2023-01-29T15:23:05.207Z,3.35
2023-01-29T15:25:48.450Z,3.32
2023-01-29T15:28:16.947Z,3.24
2023-01-29T15:30:45.601Z,3.18
2023-01-29T15:33:14.091Z,3.12
2023-01-29T15:35:42.452Z,3.10
2023-01-29T15:38:21.564Z,3.07
2023-01-29T15:40:53.851Z,3.03
2023-01-29T15:43:36.101Z,2.98
2023-01-29T15:46:24.086Z,2.94
2023-01-29T15:48:54.275Z,2.91
2023-01-29T15:51:25.076Z,2.90
2023-01-29T15:53:58.509Z,2.90
2023-01-29T15:56:33.742Z,2.91
2023-01-29T15:59:07.314Z,2.91
2023-01-29T16:01:37.441Z,2.92
2023-01-29T16:04:06.337Z,2.89
2023-01-29T16:06:39.470Z,2.87
2023-01-29T16:09:08.934Z,2.89
2023-01-29T16:11:37.403Z,2.91
2023-01-29T16:14:05.720Z,2.93
2023-01-29T16:16:36.965Z,2.96
2023-01-29T16:19:31.573Z,2.96
2023-01-29T16:22:01.865Z,2.98
2023-01-29T16:24:31.332Z,2.99
2023-01-29T16:27:01.287Z,3.00
2023-01-29T16:29:33.957Z,3.02
2023-01-29T16:32:02.791Z,3.04
2023-01-29T16:34:36.132Z,3.07
2023-01-29T16:37:17.185Z,3.03
2023-01-29T16:39:47.527Z,2.95
2023-01-29T16:42:21.391Z,2.93
2023-01-29T16:44:59.685Z,2.92
2023-01-29T16:47:29.823Z,2.92
2023-01-29T16:50:01.088Z,2.92
2023-01-29T16:52:31.626Z,2.93
2023-01-29T16:55:01.368Z,2.91
2023-01-29T16:57:32.331Z,2.89
2023-01-29T17:00:04.244Z,2.88
2023-01-29T17:02:36.711Z,2.90
2023-01-29T17:05:10.125Z,2.95
2023-01-29T17:07:40.221Z,2.98
2023-01-29T17:10:17.169Z,3.01
2023-01-29T17:12:51.433Z,3.01
2023-01-29T17:15:52.163Z,3.00
2023-01-29T17:18:22.256Z,2.96
2023-01-29T17:20:51.045Z,2.91
2023-01-29T17:23:19.705Z,2.85
2023-01-29T17:25:47.976Z,2.87
2023-01-29T17:28:18.053Z,2.90
2023-01-29T17:31:00.081Z,2.92
2023-01-29T17:33:34.206Z,2.97
2023-01-29T17:36:02.449Z,2.99
2023-01-29T17:38:30.739Z,2.98
2023-01-29T17:41:03.944Z,2.94
2023-01-29T17:43:32.962Z,2.91
2023-01-29T17:46:01.238Z,2.88
2023-01-29T17:48:29.915Z,2.86
2023-01-29T17:51:03.352Z,2.84
2023-01-29T17:53:45.598Z,2.80
2023-01-29T17:56:28.526Z,2.79
2023-01-29T17:58:56.961Z,2.78
2023-01-29T18:01:25.352Z,2.79
2023-01-29T18:03:53.861Z,2.77
2023-01-29T18:06:27.944Z,2.77
2023-01-29T18:08:57.618Z,2.75
2023-01-29T18:11:26.698Z,2.73
2023-01-29T18:13:56.777Z,2.74
2023-01-29T18:16:25.894Z,2.76
2023-01-29T18:18:57.088Z,2.76
2023-01-29T18:21:25.472Z,2.77
2023-01-29T18:23:54.019Z,2.77
2023-01-29T18:26:23.093Z,2.76
2023-01-29T18:28:51.846Z,2.76
2023-01-29T18:31:21.669Z,2.76
2023-01-29T18:33:54.621Z,2.75
2023-01-29T18:36:22.954Z,2.74
2023-01-29T18:38:51.758Z,2.73
2023-01-29T18:41:19.931Z,2.73
2023-01-29T18:43:50.103Z,2.71
2023-01-29T18:46:19.247Z,2.71
2023-01-29T18:48:48.356Z,2.69
2023-01-29T18:51:16.557Z,2.68
2023-01-29T18:53:48.906Z,2.68
2023-01-29T18:56:18.141Z,2.67
2023-01-29T18:58:52.334Z,2.64
2023-01-29T19:01:24.413Z,2.63
2023-01-29T19:03:52.737Z,2.63
2023-01-29T19:06:20.849Z,2.65
2023-01-29T19:08:49.618Z,2.64
2023-01-29T19:11:18.731Z,2.64
2023-01-29T19:13:48.172Z,2.64
2023-01-29T19:16:16.527Z,2.65
2023-01-29T19:18:46.489Z,2.63
2023-01-29T19:21:15.617Z,2.59
2023-01-29T19:23:45.797Z,2.55
2023-01-29T19:26:14.129Z,2.51
2023-01-29T19:28:42.803Z,2.48
2023-01-29T19:31:11.555Z,2.43
2023-01-29T19:33:40.012Z,2.42
2023-01-29T19:36:08.995Z,2.41
2023-01-29T19:38:38.916Z,2.27
2023-01-29T19:41:07.387Z,2.19
2023-01-29T19:43:38.298Z,2.14
2023-01-29T19:46:07.683Z,2.07
2023-01-29T20:01:07.494Z,1.93
2023-01-29T20:03:38.237Z,2.21
2023-01-29T20:06:07.390Z,2.11
2023-01-29T20:08:36.373Z,2.07
2023-01-29T20:11:05.739Z,2.04
2023-01-29T20:13:34.132Z,2.00
2023-01-29T20:16:04.108Z,1.98
2023-01-29T20:18:34.108Z,1.95
2023-01-29T20:21:08.380Z,1.90
2023-01-29T20:23:38.726Z,1.84
2023-01-29T20:26:14.560Z,1.81
2023-01-29T20:28:43.553Z,1.79
2023-01-29T20:31:12.343Z,1.78
2023-01-29T20:33:41.015Z,1.77
2023-01-29T20:36:10.373Z,1.76
2023-01-29T20:38:38.732Z,1.77
2023-01-29T20:41:14.474Z,1.76
2023-01-29T20:43:43.313Z,1.75
2023-01-29T20:46:11.699Z,1.75
2023-01-29T20:48:43.891Z,1.71
2023-01-29T20:51:15.760Z,1.66
2023-01-29T20:53:45.891Z,1.65
2023-01-29T20:56:15.968Z,1.60
2023-01-29T20:58:46.912Z,1.58
2023-01-29T21:01:17.699Z,1.57
2023-01-29T21:03:46.825Z,1.55
2023-01-29T21:06:15.956Z,1.55
2023-01-29T21:08:44.856Z,1.58
2023-01-29T21:11:12.979Z,1.61
2023-01-29T21:13:41.199Z,1.64
2023-01-29T21:16:11.410Z,1.65
2023-01-29T21:18:39.877Z,1.63
2023-01-29T21:21:08.498Z,1.62
2023-01-29T21:23:36.716Z,1.65
2023-01-29T21:26:05.223Z,1.68
2023-01-29T21:28:33.859Z,1.70
2023-01-29T21:31:06.601Z,1.72
2023-01-29T21:33:35.444Z,1.73
2023-01-29T21:36:04.873Z,1.70
2023-01-29T21:38:33.181Z,1.70
2023-01-29T21:41:02.847Z,1.72
2023-01-29T21:43:31.435Z,1.71
2023-01-29T21:46:00.742Z,1.69
2023-01-29T21:48:29.120Z,1.70
2023-01-29T21:50:58.080Z,1.67
2023-01-29T21:53:26.344Z,1.63
2023-01-29T21:56:02.497Z,1.62
2023-01-29T21:58:31.097Z,1.60
2023-01-29T22:01:37.287Z,1.59
2023-01-29T22:04:09.058Z,1.59
2023-01-29T22:06:37.266Z,1.57
2023-01-29T22:09:07.658Z,1.54
2023-01-29T22:11:36.284Z,1.51
2023-01-29T22:14:05.272Z,1.48
2023-01-29T22:16:33.616Z,1.47
2023-01-29T22:19:01.952Z,1.49
2023-01-29T22:21:30.488Z,1.47
2023-01-29T22:23:58.710Z,1.47
2023-01-29T22:26:26.871Z,1.45
2023-01-29T22:28:55.133Z,1.46
2023-01-29T22:31:23.328Z,1.46
2023-01-29T22:33:53.362Z,1.49
2023-01-29T22:36:21.809Z,1.53
2023-01-29T22:38:49.973Z,1.54
2023-01-29T22:41:18.253Z,1.55
2023-01-29T22:43:46.543Z,1.58
2023-01-29T22:46:14.834Z,1.60
2023-01-29T22:48:44.921Z,1.63
2023-01-29T22:51:13.974Z,1.62
2023-01-29T22:53:49.074Z,1.62
2023-01-29T22:56:18.199Z,1.61
2023-01-29T22:58:51.463Z,1.60
2023-01-29T23:01:20.492Z,1.56
2023-01-29T23:03:48.734Z,1.51
2023-01-29T23:06:17.430Z,1.50
2023-01-29T23:08:45.750Z,1.51
2023-01-29T23:11:16.022Z,1.50
2023-01-29T23:13:45.356Z,1.49
2023-01-29T23:16:14.205Z,1.47
2023-01-29T23:18:44.076Z,1.48
2023-01-29T23:21:12.818Z,1.54
2023-01-29T23:23:41.488Z,1.61
2023-01-29T23:26:29.994Z,1.66
2023-01-29T23:28:59.058Z,1.68
2023-01-29T23:31:27.205Z,1.66
2023-01-29T23:33:55.465Z,1.64
2023-01-29T23:36:24.268Z,1.66
2023-01-29T23:38:52.453Z,1.64
2023-01-29T23:41:21.495Z,1.64
2023-01-29T23:43:50.160Z,1.65
2023-01-29T23:46:18.811Z,1.64
2023-01-29T23:48:47.028Z,1.55
2023-01-29T23:51:15.651Z,1.45
2023-01-29T23:53:44.320Z,1.40
2023-01-29T23:56:12.603Z,1.41
2023-01-29T23:58:42.501Z,1.44
